Time;durP1;ratioP1;P1;durP2;ratioP2;P2;SDS_P1;SDS_P2;PMS_P1;PMS_P2;Temp;Humidity;BMP_temperature;BMP_pressure;BME280_temperature;BME280_humidity;BME280_pressure;Samples;Min_cycle;Max_cycle;Signal;HPM_P1;HPM_P2
2021/05/02 00:00:08;;;;;;;24.35;15.23;;;;;;;;;;5074112;28;20021;-83
2021/05/02 00:02:34;;;;;;;24.42;14.57;;;;;;;;;;5070920;28;20036;-83
2021/05/02 00:05:01;;;;;;;24.58;15.43;;;;;;;;;;5058103;28;20476;-83
2021/05/02 00:07:27;;;;;;;23.65;14.85;;;;;;;;;;5053457;28;20115;-83
2021/05/02 00:09:53;;;;;;;25.67;15.98;;;;;;;;;;5042219;28;20116;-83
2021/05/02 00:12:19;;;;;;;24.42;15.52;;;;;;;;;;5074472;28;20063;-83
2021/05/02 00:14:45;;;;;;;25.55;16.70;;;;;;;;;;5055150;28;20040;-83
2021/05/02 00:17:11;;;;;;;29.42;16.33;;;;;;;;;;5046781;28;20480;-83
2021/05/02 00:19:38;;;;;;;26.50;15.57;;;;;;;;;;5047413;28;20031;-83
2021/05/02 00:22:04;;;;;;;24.98;15.48;;;;;;;;;;5066807;28;20039;-83
2021/05/02 00:24:30;;;;;;;24.83;15.48;;;;;;;;;;5075301;28;20078;-83
2021/05/02 00:26:56;;;;;;;26.50;15.98;;;;;;;;;;5049424;28;20127;-83
2021/05/02 00:29:22;;;;;;;26.80;16.13;;;;;;;;;;5047538;28;20389;-83
2021/05/02 00:31:49;;;;;;;26.25;15.93;;;;;;;;;;5074825;28;20116;-83
2021/05/02 00:34:15;;;;;;;26.73;15.52;;;;;;;;;;5069968;28;20033;-83
2021/05/02 00:36:41;;;;;;;23.58;15.63;;;;;;;;;;5047683;28;20029;-83
2021/05/02 00:39:07;;;;;;;27.75;15.85;;;;;;;;;;5055016;28;20064;-83
2021/05/02 00:41:35;;;;;;;26.52;16.05;;;;;;;;;;5073499;28;20027;-83
2021/05/02 00:44:05;;;;;;;25.27;16.80;;;;;;;;;;5073425;28;20017;-83
2021/05/02 00:46:35;;;;;;;27.85;16.58;;;;;;;;;;5073239;28;20036;-83
2021/05/02 00:49:15;;;;;;;31.88;17.25;;;;;;;;;;5052495;28;20017;-83
2021/05/02 00:51:42;;;;;;;31.02;18.13;;;;;;;;;;5051329;28;20035;-83
2021/05/02 00:54:08;;;;;;;31.08;18.77;;;;;;;;;;5053324;28;20504;-83
2021/05/02 00:56:36;;;;;;;35.28;20.02;;;;;;;;;;5042773;28;20021;-83
2021/05/02 00:59:06;;;;;;;34.65;20.08;;;;;;;;;;5056691;28;20472;-83
2021/05/02 01:01:53;;;;;;;31.60;19.55;;;;;;;;;;5052757;28;20036;-83
2021/05/02 01:04:25;;;;;;;34.42;20.45;;;;;;;;;;5044250;28;20060;-83
2021/05/02 01:06:52;;;;;;;35.63;20.38;;;;;;;;;;5050450;28;20096;-84
2021/05/02 01:09:18;;;;;;;34.67;19.85;;;;;;;;;;5072907;28;20040;-84
2021/05/02 01:11:46;;;;;;;37.53;21.50;;;;;;;;;;5071182;28;20402;-84
2021/05/02 01:14:13;;;;;;;37.35;19.13;;;;;;;;;;5050205;28;20025;-84
2021/05/02 01:16:40;;;;;;;33.08;18.10;;;;;;;;;;5055723;28;20460;-84
2021/05/02 01:19:09;;;;;;;29.05;18.15;;;;;;;;;;5055634;28;20115;-84
2021/05/02 01:21:40;;;;;;;34.47;19.50;;;;;;;;;;5072823;28;20029;-84
2021/05/02 01:24:11;;;;;;;33.58;19.20;;;;;;;;;;5053618;28;20056;-84
2021/05/02 01:26:41;;;;;;;32.67;18.98;;;;;;;;;;5055003;28;20127;-84
2021/05/02 01:29:07;;;;;;;32.38;19.98;;;;;;;;;;5073061;28;20024;-84
2021/05/02 01:31:33;;;;;;;35.63;22.48;;;;;;;;;;5055350;28;20024;-84
2021/05/02 01:33:59;;;;;;;33.53;20.13;;;;;;;;;;5072573;28;20032;-84
2021/05/02 01:36:25;;;;;;;34.58;21.17;;;;;;;;;;5039065;28;20079;-84
2021/05/02 01:38:55;;;;;;;38.58;22.77;;;;;;;;;;5051851;28;20149;-84
2021/05/02 01:41:21;;;;;;;34.70;22.20;;;;;;;;;;5047935;28;20025;-84
2021/05/02 01:43:47;;;;;;;38.05;21.60;;;;;;;;;;5050703;28;20509;-84
2021/05/02 01:46:17;;;;;;;39.55;23.60;;;;;;;;;;5055530;28;20077;-84
2021/05/02 01:48:43;;;;;;;38.40;22.67;;;;;;;;;;5069885;28;20024;-83
2021/05/02 01:51:10;;;;;;;42.92;22.42;;;;;;;;;;5044923;28;20029;-84
2021/05/02 01:53:37;;;;;;;37.40;21.30;;;;;;;;;;5069825;28;20025;-84
2021/05/02 01:56:03;;;;;;;33.78;20.50;;;;;;;;;;5046759;28;20029;-83
2021/05/02 01:58:30;;;;;;;35.67;20.67;;;;;;;;;;5046942;28;20140;-84
2021/05/02 02:00:57;;;;;;;36.28;20.60;;;;;;;;;;5069305;28;20027;-84
2021/05/02 02:03:25;;;;;;;36.65;21.15;;;;;;;;;;5055069;28;20146;-83
2021/05/02 02:05:51;;;;;;;36.97;22.05;;;;;;;;;;5071894;28;20040;-84
2021/05/02 02:08:18;;;;;;;32.38;20.45;;;;;;;;;;5037937;28;20043;-84
2021/05/02 02:10:45;;;;;;;36.97;20.63;;;;;;;;;;5048913;28;20082;-84
2021/05/02 02:13:12;;;;;;;34.03;22.25;;;;;;;;;;5072647;28;20120;-84
2021/05/02 02:15:38;;;;;;;33.03;21.55;;;;;;;;;;5048470;28;20036;-84
2021/05/02 02:18:05;;;;;;;36.28;21.10;;;;;;;;;;5049125;28;20436;-83
2021/05/02 02:20:36;;;;;;;35.67;22.17;;;;;;;;;;5044160;28;20040;-84
2021/05/02 02:23:08;;;;;;;38.22;21.13;;;;;;;;;;5068465;28;20044;-84
2021/05/02 02:25:40;;;;;;;31.98;20.45;;;;;;;;;;5072738;28;20021;-84
2021/05/02 02:28:10;;;;;;;41.83;21.60;;;;;;;;;;5064523;28;20112;-83
2021/05/02 02:30:37;;;;;;;37.58;21.52;;;;;;;;;;5041765;28;20082;-84
2021/05/02 02:33:03;;;;;;;35.88;23.10;;;;;;;;;;5049376;28;20127;-83
2021/05/02 02:35:30;;;;;;;34.97;21.48;;;;;;;;;;5070129;28;20377;-84
2021/05/02 02:37:58;;;;;;;35.70;21.30;;;;;;;;;;5071860;28;20112;-84
2021/05/02 02:40:24;;;;;;;36.22;21.15;;;;;;;;;;5052354;28;20033;-84
2021/05/02 02:42:51;;;;;;;34.88;22.40;;;;;;;;;;5064950;28;20033;-84
2021/05/02 02:45:17;;;;;;;33.58;21.20;;;;;;;;;;5046411;28;20061;-84
2021/05/02 02:47:46;;;;;;;35.65;22.33;;;;;;;;;;5046196;28;20108;-84
2021/05/02 02:50:13;;;;;;;35.08;21.35;;;;;;;;;;5053321;28;20029;-84
2021/05/02 02:52:55;;;;;;;33.65;20.85;;;;;;;;;;5043399;28;20032;-84
2021/05/02 02:55:22;;;;;;;37.22;22.65;;;;;;;;;;5051600;28;20032;-84
2021/05/02 02:57:51;;;;;;;36.83;22.05;;;;;;;;;;5061831;28;20079;-84
2021/05/02 03:00:18;;;;;;;38.78;22.42;;;;;;;;;;5053361;28;20095;-84
2021/05/02 03:03:04;;;;;;;37.10;21.80;;;;;;;;;;5072796;28;20383;-83
2021/05/02 03:05:32;;;;;;;34.88;21.90;;;;;;;;;;5050816;28;20024;-84
2021/05/02 03:07:58;;;;;;;40.88;22.48;;;;;;;;;;5048095;28;20075;-84
2021/05/02 03:10:24;;;;;;;34.60;21.52;;;;;;;;;;5053883;28;20119;-84
2021/05/02 03:12:51;;;;;;;38.53;21.80;;;;;;;;;;5041170;28;20123;-84
2021/05/02 03:15:17;;;;;;;34.80;21.45;;;;;;;;;;5052310;28;20123;-83
2021/05/02 03:17:44;;;;;;;38.05;21.33;;;;;;;;;;5049525;28;20438;-84
2021/05/02 03:20:15;;;;;;;32.72;21.38;;;;;;;;;;5057328;28;20028;-83
2021/05/02 03:22:53;;;;;;;34.42;19.95;;;;;;;;;;5052309;28;20123;-83
2021/05/02 03:25:22;;;;;;;33.75;21.05;;;;;;;;;;5064355;28;20111;-84
2021/05/02 03:27:56;;;;;;;33.38;20.63;;;;;;;;;;5057430;28;20044;-83
2021/05/02 03:30:24;;;;;;;37.30;22.27;;;;;;;;;;5045737;28;20033;-84
2021/05/02 03:32:52;;;;;;;38.17;21.45;;;;;;;;;;5069529;28;20381;-83
2021/05/02 03:35:19;;;;;;;33.10;21.05;;;;;;;;;;5052845;28;20028;-84
2021/05/02 03:37:48;;;;;;;36.22;21.17;;;;;;;;;;5051522;28;20423;-84
2021/05/02 03:40:14;;;;;;;38.38;23.42;;;;;;;;;;5046742;28;20027;-84
2021/05/02 03:42:40;;;;;;;36.60;21.58;;;;;;;;;;5057705;28;20131;-84
2021/05/02 03:45:07;;;;;;;35.08;21.42;;;;;;;;;;5053836;28;20484;-84
2021/05/02 03:47:33;;;;;;;39.40;23.23;;;;;;;;;;5075426;28;20038;-84
2021/05/02 03:49:59;;;;;;;35.80;21.77;;;;;;;;;;5056937;28;20415;-84
2021/05/02 03:52:25;;;;;;;37.22;22.48;;;;;;;;;;5055195;28;20559;-84
2021/05/02 03:54:52;;;;;;;39.42;22.42;;;;;;;;;;5051107;28;20024;-84
2021/05/02 03:57:18;;;;;;;34.08;21.52;;;;;;;;;;5046207;28;20108;-84
2021/05/02 03:59:44;;;;;;;42.20;22.75;;;;;;;;;;5049138;28;20055;-83
2021/05/02 04:02:10;;;;;;;39.97;22.83;;;;;;;;;;5053096;28;20551;-84
2021/05/02 04:04:36;;;;;;;37.03;23.13;;;;;;;;;;5055175;28;20069;-83
2021/05/02 04:07:04;;;;;;;39.40;23.73;;;;;;;;;;5057227;28;20016;-84
2021/05/02 04:09:30;;;;;;;37.13;22.55;;;;;;;;;;5055483;28;20531;-84
2021/05/02 04:11:56;;;;;;;36.28;22.77;;;;;;;;;;5053754;28;20082;-84
2021/05/02 04:14:22;;;;;;;40.15;25.02;;;;;;;;;;5069509;28;20043;-84
2021/05/02 04:16:55;;;;;;;41.28;23.15;;;;;;;;;;5054718;28;20028;-84
2021/05/02 04:19:21;;;;;;;38.72;22.42;;;;;;;;;;5049852;28;20033;-84
2021/05/02 04:21:47;;;;;;;41.45;23.25;;;;;;;;;;5038713;28;20033;-84
2021/05/02 04:24:13;;;;;;;42.10;23.85;;;;;;;;;;5055725;28;20174;-83
2021/05/02 04:26:46;;;;;;;43.50;23.67;;;;;;;;;;5044780;28;20493;-83
2021/05/02 04:29:12;;;;;;;40.50;24.13;;;;;;;;;;5063430;28;20123;-84
2021/05/02 04:31:38;;;;;;;38.40;23.30;;;;;;;;;;5069506;28;20114;-84
2021/05/02 04:34:05;;;;;;;41.00;24.20;;;;;;;;;;5053246;28;20690;-84
2021/05/02 04:36:31;;;;;;;40.00;24.23;;;;;;;;;;5047310;28;20111;-84
2021/05/02 04:38:58;;;;;;;39.92;25.05;;;;;;;;;;5070602;28;20432;-84
2021/05/02 04:41:24;;;;;;;40.38;23.95;;;;;;;;;;5074802;28;20055;-84
2021/05/02 04:43:50;;;;;;;38.45;23.02;;;;;;;;;;5052167;28;20123;-84
2021/05/02 04:46:16;;;;;;;40.80;22.38;;;;;;;;;;5055327;28;20029;-84
2021/05/02 04:48:43;;;;;;;38.30;22.90;;;;;;;;;;5056467;28;20449;-84
2021/05/02 04:51:10;;;;;;;37.30;22.00;;;;;;;;;;5049220;28;20107;-84
2021/05/02 04:53:36;;;;;;;34.88;22.50;;;;;;;;;;5058148;28;20062;-84
2021/05/02 04:56:02;;;;;;;40.22;23.50;;;;;;;;;;5046281;28;20432;-84
2021/05/02 04:58:28;;;;;;;42.67;23.83;;;;;;;;;;5051419;28;20029;-83
2021/05/02 05:00:54;;;;;;;37.17;22.45;;;;;;;;;;5047492;28;20119;-83
2021/05/02 05:03:20;;;;;;;41.53;23.17;;;;;;;;;;5042912;28;20451;-84
2021/05/02 05:05:46;;;;;;;38.17;22.67;;;;;;;;;;5048680;28;20028;-83
2021/05/02 05:08:13;;;;;;;35.92;22.77;;;;;;;;;;5066909;28;20123;-84
2021/05/02 05:10:39;;;;;;;41.58;22.75;;;;;;;;;;5046280;28;20457;-83
2021/05/02 05:13:05;;;;;;;39.97;22.90;;;;;;;;;;5050076;28;20056;-83
2021/05/02 05:15:31;;;;;;;39.88;23.52;;;;;;;;;;5055746;28;20032;-84
2021/05/02 05:17:57;;;;;;;40.20;24.00;;;;;;;;;;5073893;28;20074;-84
2021/05/02 05:20:23;;;;;;;37.80;22.67;;;;;;;;;;5055756;28;20020;-83
2021/05/02 05:22:49;;;;;;;39.60;22.58;;;;;;;;;;5053551;28;20064;-84
2021/05/02 05:25:15;;;;;;;37.40;23.10;;;;;;;;;;5050737;28;20031;-84
2021/05/02 05:27:41;;;;;;;35.45;21.55;;;;;;;;;;5052811;28;20392;-84
2021/05/02 05:30:09;;;;;;;41.60;22.63;;;;;;;;;;5069450;28;20040;-84
2021/05/02 05:32:35;;;;;;;38.78;22.45;;;;;;;;;;5042605;28;20424;-84
2021/05/02 05:35:01;;;;;;;37.17;21.83;;;;;;;;;;5052151;28;20020;-84
2021/05/02 05:37:27;;;;;;;39.75;22.38;;;;;;;;;;5071884;28;20078;-84
2021/05/02 05:39:53;;;;;;;34.55;21.85;;;;;;;;;;5047631;28;20025;-84
2021/05/02 05:42:19;;;;;;;40.30;23.00;;;;;;;;;;5052758;28;20037;-83
2021/05/02 05:44:45;;;;;;;37.35;22.42;;;;;;;;;;5045865;28;20036;-84
2021/05/02 05:47:12;;;;;;;45.95;24.63;;;;;;;;;;5052566;28;20062;-84
2021/05/02 05:49:39;;;;;;;42.20;23.00;;;;;;;;;;5045886;28;20029;-84
2021/05/02 05:52:06;;;;;;;39.22;22.60;;;;;;;;;;5060225;28;20484;-84
2021/05/02 05:54:32;;;;;;;40.13;22.55;;;;;;;;;;5055535;28;20085;-84
2021/05/02 05:56:58;;;;;;;42.45;24.38;;;;;;;;;;5055691;28;20032;-84
2021/05/02 05:59:24;;;;;;;44.15;23.73;;;;;;;;;;5071586;28;20024;-84
2021/05/02 06:01:50;;;;;;;42.20;22.42;;;;;;;;;;5052861;28;20027;-84
2021/05/02 06:04:17;;;;;;;46.25;25.45;;;;;;;;;;5051341;28;20063;-84
2021/05/02 06:06:43;;;;;;;39.13;23.58;;;;;;;;;;5049842;28;20021;-83
2021/05/02 06:09:09;;;;;;;43.72;24.77;;;;;;;;;;5046881;28;20059;-84
2021/05/02 06:11:36;;;;;;;38.45;23.33;;;;;;;;;;5067831;28;20481;-84
2021/05/02 06:14:02;;;;;;;37.90;22.70;;;;;;;;;;5056908;28;20108;-84
2021/05/02 06:16:28;;;;;;;40.38;23.40;;;;;;;;;;5061561;28;20036;-83
2021/05/02 06:18:55;;;;;;;39.42;23.42;;;;;;;;;;5044090;28;20029;-83
2021/05/02 06:21:21;;;;;;;38.67;21.30;;;;;;;;;;5046604;28;20032;-83
2021/05/02 06:23:48;;;;;;;39.80;22.95;;;;;;;;;;5051346;28;20032;-83
2021/05/02 06:26:15;;;;;;;40.22;22.77;;;;;;;;;;5063980;28;20032;-85
2021/05/02 06:28:42;;;;;;;39.58;22.67;;;;;;;;;;5066946;28;20426;-86
2021/05/02 06:31:08;;;;;;;36.00;22.33;;;;;;;;;;5051485;28;20408;-83
2021/05/02 06:33:35;;;;;;;39.35;22.23;;;;;;;;;;5048711;28;20028;-84
2021/05/02 06:36:01;;;;;;;42.42;24.00;;;;;;;;;;5045180;28;20111;-84
2021/05/02 06:38:27;;;;;;;39.22;22.58;;;;;;;;;;5048372;28;20143;-83
2021/05/02 06:40:53;;;;;;;37.92;22.02;;;;;;;;;;5066029;28;20104;-83
2021/05/02 06:43:19;;;;;;;39.45;22.83;;;;;;;;;;5042455;28;20065;-83
2021/05/02 06:45:45;;;;;;;36.63;21.58;;;;;;;;;;5042494;28;20037;-83
2021/05/02 06:48:11;;;;;;;36.47;21.70;;;;;;;;;;5050179;28;20029;-83
2021/05/02 06:50:37;;;;;;;34.95;20.73;;;;;;;;;;5053123;28;20029;-83
2021/05/02 06:53:03;;;;;;;36.38;21.23;;;;;;;;;;5051055;28;20387;-83
2021/05/02 06:55:29;;;;;;;37.53;22.05;;;;;;;;;;5057193;28;20031;-84
2021/05/02 06:57:59;;;;;;;37.60;21.38;;;;;;;;;;5060241;28;20017;-84
2021/05/02 07:00:26;;;;;;;34.95;20.90;;;;;;;;;;5050792;28;20421;-84
2021/05/02 07:02:51;;;;;;;36.60;22.05;;;;;;;;;;5056758;28;20484;-84
2021/05/02 07:05:18;;;;;;;35.28;19.73;;;;;;;;;;5054530;28;20572;-83
2021/05/02 07:07:43;;;;;;;36.13;21.77;;;;;;;;;;5054548;28;20071;-85
2021/05/02 07:10:10;;;;;;;35.42;21.10;;;;;;;;;;5050812;28;20036;-83
2021/05/02 07:12:36;;;;;;;36.38;21.58;;;;;;;;;;5055745;28;20100;-84
2021/05/02 07:15:02;;;;;;;34.28;21.08;;;;;;;;;;5071150;28;20154;-84
2021/05/02 07:17:28;;;;;;;35.80;21.48;;;;;;;;;;5050055;28;20025;-84
2021/05/02 07:19:54;;;;;;;37.85;21.90;;;;;;;;;;5055277;28;20108;-84
2021/05/02 07:22:20;;;;;;;32.10;20.13;;;;;;;;;;5071567;28;20032;-83
2021/05/02 07:24:52;;;;;;;35.35;21.20;;;;;;;;;;5047705;28;20059;-83
2021/05/02 07:27:18;;;;;;;32.85;20.50;;;;;;;;;;5063576;28;20032;-83
2021/05/02 07:29:44;;;;;;;36.17;21.10;;;;;;;;;;5045784;28;20060;-84
2021/05/02 07:32:10;;;;;;;32.53;20.15;;;;;;;;;;5063410;28;20056;-85
2021/05/02 07:34:36;;;;;;;34.00;20.83;;;;;;;;;;5050640;28;20353;-84
2021/05/02 07:37:03;;;;;;;31.90;19.70;;;;;;;;;;5046465;28;20535;-87
2021/05/02 07:39:29;;;;;;;31.65;19.77;;;;;;;;;;5055610;28;20033;-83
2021/05/02 07:41:55;;;;;;;32.35;20.05;;;;;;;;;;5051952;28;20076;-84
2021/05/02 07:44:21;;;;;;;37.03;20.80;;;;;;;;;;5051582;28;20151;-83
2021/05/02 07:46:47;;;;;;;29.98;19.25;;;;;;;;;;5053739;28;20032;-83
2021/05/02 07:49:13;;;;;;;31.77;19.20;;;;;;;;;;5069992;28;20445;-84
2021/05/02 07:51:39;;;;;;;32.67;19.10;;;;;;;;;;5054086;28;20029;-82
2021/05/02 07:54:05;;;;;;;36.60;20.58;;;;;;;;;;5071508;28;20051;-83
2021/05/02 07:56:31;;;;;;;31.60;18.23;;;;;;;;;;5070905;28;20064;-82
2021/05/02 07:58:57;;;;;;;32.47;19.60;;;;;;;;;;5068456;28;20060;-82
2021/05/02 08:01:23;;;;;;;34.97;19.65;;;;;;;;;;5050956;28;20394;-83
2021/05/02 08:03:49;;;;;;;30.10;18.77;;;;;;;;;;5053582;28;20519;-83
2021/05/02 08:06:15;;;;;;;30.90;19.60;;;;;;;;;;5051182;28;20032;-84
2021/05/02 08:08:41;;;;;;;29.33;18.42;;;;;;;;;;5054406;28;20408;-83
2021/05/02 08:11:07;;;;;;;27.58;17.15;;;;;;;;;;5051904;28;20024;-84
2021/05/02 08:13:33;;;;;;;27.75;18.23;;;;;;;;;;5054177;28;20037;-85
2021/05/02 08:15:59;;;;;;;31.63;18.77;;;;;;;;;;5065188;28;20042;-85
2021/05/02 08:18:25;;;;;;;29.80;18.33;;;;;;;;;;5053691;28;20078;-84
2021/05/02 08:20:51;;;;;;;27.83;17.65;;;;;;;;;;5077072;28;20019;-84
2021/05/02 08:23:17;;;;;;;35.30;19.75;;;;;;;;;;5076961;28;20089;-84
2021/05/02 08:25:43;;;;;;;29.83;17.60;;;;;;;;;;5051389;28;20024;-84
2021/05/02 08:28:09;;;;;;;33.80;18.20;;;;;;;;;;5059258;28;20442;-84
2021/05/02 08:30:35;;;;;;;29.48;17.08;;;;;;;;;;5059396;28;20051;-84
2021/05/02 08:33:01;;;;;;;29.50;17.50;;;;;;;;;;5055716;28;20028;-84
2021/05/02 08:35:27;;;;;;;25.92;16.25;;;;;;;;;;5078482;28;20016;-84
2021/05/02 08:37:53;;;;;;;27.83;16.95;;;;;;;;;;5049928;28;20472;-85
2021/05/02 08:40:19;;;;;;;24.63;15.82;;;;;;;;;;5052998;28;20079;-85
2021/05/02 08:42:46;;;;;;;26.20;16.83;;;;;;;;;;5054390;28;20074;-85
2021/05/02 08:45:12;;;;;;;30.45;16.65;;;;;;;;;;5042103;28;20048;-85
2021/05/02 08:47:38;;;;;;;30.10;17.92;;;;;;;;;;5049802;28;20487;-84
2021/05/02 08:50:06;;;;;;;27.25;17.58;;;;;;;;;;5052026;28;20376;-83
2021/05/02 08:52:32;;;;;;;26.00;16.77;;;;;;;;;;5050429;28;20048;-85
2021/05/02 08:54:58;;;;;;;28.95;17.92;;;;;;;;;;5055483;28;20020;-84
2021/05/02 08:57:24;;;;;;;26.35;17.25;;;;;;;;;;5055220;28;20457;-87
2021/05/02 08:59:50;;;;;;;28.00;16.58;;;;;;;;;;5048549;28;20036;-84
2021/05/02 09:02:23;;;;;;;27.83;17.33;;;;;;;;;;5052781;28;20081;-85
2021/05/02 09:04:54;;;;;;;27.73;17.23;;;;;;;;;;5039964;28;20031;-84
2021/05/02 09:07:20;;;;;;;25.13;16.20;;;;;;;;;;5052214;28;20036;-84
2021/05/02 09:09:46;;;;;;;29.80;16.55;;;;;;;;;;5054262;28;20123;-84
2021/05/02 09:12:19;;;;;;;24.25;16.30;;;;;;;;;;5050644;28;20112;-84
2021/05/02 09:14:45;;;;;;;28.60;17.23;;;;;;;;;;5053262;28;20036;-84
2021/05/02 09:17:14;;;;;;;24.42;15.40;;;;;;;;;;5052125;28;20522;-84
2021/05/02 09:19:48;;;;;;;24.38;14.88;;;;;;;;;;5054814;28;20276;-84
2021/05/02 09:22:15;;;;;;;25.30;14.68;;;;;;;;;;5065602;28;20472;-84
2021/05/02 09:24:41;;;;;;;22.10;15.13;;;;;;;;;;5048132;28;20082;-84
2021/05/02 09:27:11;;;;;;;24.05;15.07;;;;;;;;;;5041339;28;20182;-84
2021/05/02 09:29:37;;;;;;;23.20;13.80;;;;;;;;;;5045522;28;20028;-84
2021/05/02 09:32:05;;;;;;;24.05;14.60;;;;;;;;;;5041636;28;20120;-84
2021/05/02 09:34:31;;;;;;;22.33;14.20;;;;;;;;;;5045950;28;20031;-84
2021/05/02 09:37:05;;;;;;;22.90;14.07;;;;;;;;;;5045519;28;20118;-84
2021/05/02 09:39:38;;;;;;;23.80;14.00;;;;;;;;;;5048042;28;20028;-84
2021/05/02 09:42:09;;;;;;;22.63;14.05;;;;;;;;;;5062500;28;20036;-84
2021/05/02 09:44:53;;;;;;;23.90;13.98;;;;;;;;;;5049302;28;20056;-84
2021/05/02 09:47:25;;;;;;;21.60;13.70;;;;;;;;;;5042992;28;20033;-84
2021/05/02 09:50:10;;;;;;;22.15;13.32;;;;;;;;;;5042081;28;20037;-84
2021/05/02 09:52:49;;;;;;;20.10;13.02;;;;;;;;;;5062363;28;20499;-84
2021/05/02 09:55:19;;;;;;;20.55;13.57;;;;;;;;;;5062582;28;20021;-84
2021/05/02 09:57:55;;;;;;;21.70;14.35;;;;;;;;;;5041323;28;20031;-84
2021/05/02 10:00:41;;;;;;;21.77;14.00;;;;;;;;;;5041310;28;20028;-84
2021/05/02 10:03:12;;;;;;;23.40;13.75;;;;;;;;;;5047570;28;20368;-83
2021/05/02 10:05:56;;;;;;;21.77;14.13;;;;;;;;;;5044806;28;20488;-83
2021/05/02 10:08:24;;;;;;;22.02;13.85;;;;;;;;;;5044953;28;20052;-83
2021/05/02 10:10:51;;;;;;;25.05;14.73;;;;;;;;;;5059308;28;20111;-83
2021/05/02 10:13:17;;;;;;;24.27;14.55;;;;;;;;;;5063126;28;20036;-83
2021/05/02 10:15:43;;;;;;;21.42;14.10;;;;;;;;;;5049500;28;20448;-84
2021/05/02 10:18:10;;;;;;;25.17;15.73;;;;;;;;;;5061376;28;20392;-84
2021/05/02 10:20:36;;;;;;;26.73;14.25;;;;;;;;;;5048930;28;20055;-83
2021/05/02 10:23:03;;;;;;;24.40;15.23;;;;;;;;;;5048519;28;20025;-83
2021/05/02 10:25:29;;;;;;;22.92;15.88;;;;;;;;;;5066199;28;20029;-84
2021/05/02 10:27:55;;;;;;;21.80;14.63;;;;;;;;;;5044766;28;20025;-83
2021/05/02 10:30:27;;;;;;;23.85;14.93;;;;;;;;;;5060130;28;20021;-83
2021/05/02 10:33:00;;;;;;;29.85;15.82;;;;;;;;;;5044140;28;20032;-83
2021/05/02 10:35:41;;;;;;;22.63;15.07;;;;;;;;;;5061499;28;20446;-83
2021/05/02 10:38:07;;;;;;;22.75;14.63;;;;;;;;;;5063667;28;20032;-83
2021/05/02 10:40:33;;;;;;;26.55;16.88;;;;;;;;;;5048893;28;20032;-83
2021/05/02 10:43:03;;;;;;;26.33;15.90;;;;;;;;;;5042352;28;20028;-83
2021/05/02 10:45:42;;;;;;;27.27;15.68;;;;;;;;;;5042620;28;20031;-83
2021/05/02 10:48:09;;;;;;;22.02;13.82;;;;;;;;;;5050003;28;20034;-83
2021/05/02 10:50:43;;;;;;;22.60;14.85;;;;;;;;;;5051974;28;20445;-83
2021/05/02 10:53:10;;;;;;;20.55;13.98;;;;;;;;;;5046243;28;20123;-84
2021/05/02 10:55:47;;;;;;;21.25;14.52;;;;;;;;;;5042713;28;20120;-84
2021/05/02 10:58:23;;;;;;;24.30;15.13;;;;;;;;;;5048171;28;20035;-84
2021/05/02 11:00:50;;;;;;;22.75;15.02;;;;;;;;;;5047473;28;20020;-83
2021/05/02 11:03:51;;;;;;;22.77;13.85;;;;;;;;;;5047029;28;20029;-84
2021/05/02 11:06:36;;;;;;;20.92;14.15;;;;;;;;;;5050349;28;20059;-83
2021/05/02 11:09:03;;;;;;;24.45;14.52;;;;;;;;;;5040155;28;20052;-83
2021/05/02 11:11:39;;;;;;;23.25;14.30;;;;;;;;;;5043505;28;20037;-84
2021/05/02 11:16:34;;;;;;;23.15;14.73;;;;;;;;;;5058330;28;20115;-84
2021/05/02 11:19:00;;;;;;;22.08;14.20;;;;;;;;;;5062620;28;20388;-83
2021/05/02 11:21:26;;;;;;;24.40;13.77;;;;;;;;;;5050007;28;20109;-83
2021/05/02 11:24:00;;;;;;;23.65;15.07;;;;;;;;;;5036800;28;20035;-83
2021/05/02 11:26:45;;;;;;;20.42;13.45;;;;;;;;;;5058460;28;20132;-83
2021/05/02 11:29:15;;;;;;;22.77;15.23;;;;;;;;;;5046344;28;20122;-83
2021/05/02 11:31:45;;;;;;;23.48;14.02;;;;;;;;;;5046590;28;20509;-83
2021/05/02 11:34:11;;;;;;;22.58;13.98;;;;;;;;;;5059758;28;20484;-83
2021/05/02 11:36:41;;;;;;;25.88;14.35;;;;;;;;;;5052305;28;20031;-83
2021/05/02 11:39:07;;;;;;;24.63;15.73;;;;;;;;;;5065234;28;20071;-83
2021/05/02 11:41:52;;;;;;;22.83;14.77;;;;;;;;;;5055539;28;20021;-82
2021/05/02 11:44:18;;;;;;;23.60;15.13;;;;;;;;;;5056458;28;20151;-83
2021/05/02 11:46:44;;;;;;;22.90;14.95;;;;;;;;;;5047526;28;20060;-82
2021/05/02 11:49:10;;;;;;;21.73;13.90;;;;;;;;;;5049062;28;20076;-83
2021/05/02 11:51:36;;;;;;;24.13;13.43;;;;;;;;;;5061628;28;20025;-82
2021/05/02 11:54:03;;;;;;;22.73;14.45;;;;;;;;;;5049535;28;20120;-83
2021/05/02 11:56:34;;;;;;;19.90;13.77;;;;;;;;;;5048944;28;20354;-83
2021/05/02 11:59:04;;;;;;;23.90;14.23;;;;;;;;;;5047292;28;20487;-83
2021/05/02 12:01:31;;;;;;;21.17;13.90;;;;;;;;;;5047566;28;20650;-83
2021/05/02 12:04:07;;;;;;;22.52;14.30;;;;;;;;;;5071815;28;20086;-83
2021/05/02 12:06:35;;;;;;;22.13;14.45;;;;;;;;;;5051632;28;20032;-84
2021/05/02 12:09:03;;;;;;;24.17;14.40;;;;;;;;;;5068239;28;20075;-83
2021/05/02 12:11:29;;;;;;;24.85;15.00;;;;;;;;;;5049073;28;20047;-83
2021/05/02 12:13:56;;;;;;;26.77;16.38;;;;;;;;;;5046478;28;20506;-84
2021/05/02 12:16:29;;;;;;;29.17;16.65;;;;;;;;;;5043011;28;20059;-83
2021/05/02 12:18:56;;;;;;;28.27;16.63;;;;;;;;;;5051768;28;20020;-84
2021/05/02 12:21:25;;;;;;;27.27;16.83;;;;;;;;;;5050585;28;20064;-83
2021/05/02 12:23:52;;;;;;;29.05;16.90;;;;;;;;;;5069089;28;20028;-82
2021/05/02 12:26:18;;;;;;;24.50;15.63;;;;;;;;;;5045888;28;20544;-82
2021/05/02 12:28:45;;;;;;;24.95;15.32;;;;;;;;;;5057854;28;20499;-82
2021/05/02 12:31:13;;;;;;;25.77;16.92;;;;;;;;;;5072718;28;20495;-83
2021/05/02 12:33:39;;;;;;;27.30;17.20;;;;;;;;;;5049233;28;20058;-83
2021/05/02 12:36:06;;;;;;;23.60;15.88;;;;;;;;;;5044665;28;20031;-83
2021/05/02 12:38:33;;;;;;;27.33;16.90;;;;;;;;;;5053511;28;20032;-83
2021/05/02 12:40:59;;;;;;;23.35;15.88;;;;;;;;;;5059568;28;20384;-83
2021/05/02 12:43:30;;;;;;;26.33;17.67;;;;;;;;;;5071998;28;20464;-83
2021/05/02 12:45:57;;;;;;;23.42;16.35;;;;;;;;;;5044246;28;20498;-83
2021/05/02 12:48:39;;;;;;;24.90;17.10;;;;;;;;;;5050473;28;20024;-83
2021/05/02 12:51:05;;;;;;;21.08;14.32;;;;;;;;;;5045843;28;20025;-84
2021/05/02 12:53:38;;;;;;;20.38;12.93;;;;;;;;;;5051107;28;20024;-83
2021/05/02 12:56:05;;;;;;;20.63;14.90;;;;;;;;;;5054505;28;20024;-83
2021/05/02 12:58:38;;;;;;;20.90;14.05;;;;;;;;;;5043241;28;20047;-83
2021/05/02 13:01:12;;;;;;;21.17;14.07;;;;;;;;;;5073811;28;20025;-83
2021/05/02 13:03:42;;;;;;;21.45;14.55;;;;;;;;;;5053384;28;20081;-83
2021/05/02 13:06:08;;;;;;;19.98;13.85;;;;;;;;;;5055221;28;20031;-83
2021/05/02 13:08:35;;;;;;;20.48;13.32;;;;;;;;;;5073326;28;20067;-84
2021/05/02 13:11:20;;;;;;;18.83;13.40;;;;;;;;;;5049692;28;20032;-83
2021/05/02 13:13:46;;;;;;;19.95;13.20;;;;;;;;;;5045223;28;20388;-84
2021/05/02 13:16:12;;;;;;;19.35;13.57;;;;;;;;;;5050891;28;20079;-83
2021/05/02 13:18:38;;;;;;;20.50;14.40;;;;;;;;;;5047963;28;20461;-83
2021/05/02 13:21:04;;;;;;;20.77;13.80;;;;;;;;;;5054717;28;20289;-83
2021/05/02 13:23:38;;;;;;;23.63;14.40;;;;;;;;;;5053954;28;20039;-83
2021/05/02 13:26:04;;;;;;;;;;;;;;;;;;5063692;28;20033;-83
2021/05/02 13:28:30;;;;;;;21.35;13.23;;;;;;;;;;5063175;28;19919;-83
2021/05/02 13:30:56;;;;;;;19.90;14.30;;;;;;;;;;5047777;28;20472;-84
2021/05/02 13:33:30;;;;;;;19.60;13.88;;;;;;;;;;5041905;28;20093;-84
2021/05/02 13:35:57;;;;;;;20.25;12.90;;;;;;;;;;5048848;28;20033;-83
2021/05/02 13:38:23;;;;;;;20.88;12.95;;;;;;;;;;5043846;28;20107;-83
2021/05/02 13:40:49;;;;;;;23.10;13.60;;;;;;;;;;5071460;28;20051;-84
2021/05/02 13:43:15;;;;;;;16.85;12.75;;;;;;;;;;5050374;28;20029;-84
2021/05/02 13:45:41;;;;;;;18.10;12.40;;;;;;;;;;5049890;28;20032;-83
2021/05/02 13:48:08;;;;;;;19.80;12.90;;;;;;;;;;5044055;28;20025;-84
2021/05/02 13:50:34;;;;;;;18.77;13.18;;;;;;;;;;5051490;28;20119;-83
2021/05/02 13:53:00;;;;;;;16.33;12.30;;;;;;;;;;5053911;28;20119;-83
2021/05/02 13:55:26;;;;;;;17.55;11.60;;;;;;;;;;5053332;28;20086;-84
2021/05/02 13:57:52;;;;;;;16.73;12.63;;;;;;;;;;5045743;28;20788;-83
2021/05/02 14:00:18;;;;;;;19.83;13.10;;;;;;;;;;5043878;28;20021;-83
2021/05/02 14:02:46;;;;;;;18.83;12.90;;;;;;;;;;5070718;28;20024;-84
2021/05/02 14:05:13;;;;;;;16.50;12.15;;;;;;;;;;5061728;28;20033;-82
2021/05/02 14:07:39;;;;;;;19.25;13.00;;;;;;;;;;5040890;28;20031;-82
2021/05/02 14:10:05;;;;;;;18.77;13.98;;;;;;;;;;5056247;28;20127;-81
2021/05/02 14:12:31;;;;;;;19.95;13.95;;;;;;;;;;5065799;28;20051;-82
2021/05/02 14:14:57;;;;;;;20.73;14.25;;;;;;;;;;5060705;28;20033;-81
2021/05/02 14:17:24;;;;;;;23.83;15.40;;;;;;;;;;5068283;28;20078;-82
2021/05/02 14:19:51;;;;;;;24.15;16.27;;;;;;;;;;5053897;28;20020;-82
2021/05/02 14:22:17;;;;;;;22.40;15.20;;;;;;;;;;5049740;28;20033;-81
2021/05/02 14:24:43;;;;;;;21.35;14.75;;;;;;;;;;5045130;28;20111;-82